createdAt,value
2019-04-28T00:01:55.325Z,91.30
2019-04-28T00:04:21.688Z,91.40
2019-04-28T00:06:48.157Z,91.30
2019-04-28T00:09:15.397Z,91.10
2019-04-28T00:11:41.852Z,91.10
2019-04-28T00:14:11.844Z,90.30
2019-04-28T00:16:37.846Z,90.70
2019-04-28T00:19:04.117Z,90.50
2019-04-28T00:21:51.660Z,90.80
2019-04-28T00:24:25.781Z,90.40
2019-04-28T00:26:56.682Z,90.60
2019-04-28T00:29:23.129Z,90.70
2019-04-28T00:31:51.299Z,90.60
2019-04-28T00:34:21.273Z,90.70
2019-04-28T00:36:51.223Z,90.60
2019-04-28T00:39:17.523Z,90.80
2019-04-28T00:41:43.829Z,90.80
2019-04-28T00:44:11.857Z,90.70
2019-04-28T00:46:40.963Z,90.80
2019-04-28T00:49:07.230Z,90.90
2019-04-28T00:51:33.563Z,90.90
2019-04-28T00:54:00.829Z,90.90
2019-04-28T00:56:27.548Z,91.00
2019-04-28T00:58:53.793Z,91.30
2019-04-28T01:01:40.738Z,91.10
2019-04-28T01:04:08.447Z,91.20
2019-04-28T01:06:35.877Z,91.40
2019-04-28T01:09:05.852Z,91.40
2019-04-28T01:11:33.982Z,91.30
2019-04-28T01:14:01.758Z,91.30
2019-04-28T01:16:36.318Z,91.20
2019-04-28T01:19:10.111Z,91.40
2019-04-28T01:21:55.088Z,91.50
2019-04-28T01:24:21.309Z,91.80
2019-04-28T01:26:50.806Z,91.80
2019-04-28T01:29:37.059Z,91.90
2019-04-28T01:32:23.790Z,91.90
2019-04-28T01:34:50.020Z,92.00
2019-04-28T01:37:16.384Z,91.90
2019-04-28T01:39:42.697Z,92.10
2019-04-28T01:42:10.605Z,92.00
2019-04-28T01:44:37.002Z,92.10
2019-04-28T01:47:03.413Z,92.20
2019-04-28T01:49:29.642Z,92.40
2019-04-28T01:51:57.653Z,92.40
2019-04-28T01:54:23.878Z,92.60
2019-04-28T01:56:50.310Z,92.40
2019-04-28T01:59:16.524Z,92.30
2019-04-28T02:01:42.741Z,92.30
2019-04-28T02:04:10.096Z,92.20
2019-04-28T02:06:37.001Z,92.10
2019-04-28T02:09:06.427Z,92.30
2019-04-28T02:11:34.562Z,92.40
2019-04-28T02:14:00.977Z,92.40
2019-04-28T02:16:27.189Z,92.40
2019-04-28T02:18:53.425Z,92.40
2019-04-28T02:21:29.464Z,92.20
2019-04-28T02:23:59.542Z,92.20
2019-04-28T02:26:25.898Z,91.90
2019-04-28T02:28:52.123Z,91.90
2019-04-28T02:31:24.145Z,91.90
2019-04-28T02:33:46.477Z,92.10
2019-04-28T02:36:12.794Z,92.10
2019-04-28T02:38:41.381Z,92.00
2019-04-28T02:41:07.268Z,91.60
2019-04-28T02:43:33.574Z,91.40
2019-04-28T02:46:00.663Z,91.70
2019-04-28T02:48:27.071Z,91.80
2019-04-28T02:51:01.343Z,91.80
2019-04-28T02:53:33.119Z,91.60
2019-04-28T02:55:57.817Z,91.60
2019-04-28T02:58:24.021Z,91.70
2019-04-28T03:01:04.953Z,91.90
2019-04-28T03:03:20.919Z,91.90
2019-04-28T03:05:46.749Z,91.80
2019-04-28T03:08:13.087Z,91.80
2019-04-28T03:10:40.993Z,91.90
2019-04-28T03:13:07.483Z,91.90
2019-04-28T03:15:33.720Z,92.00
2019-04-28T03:18:02.043Z,92.10
2019-04-28T03:20:30.554Z,92.00
2019-04-28T03:22:56.659Z,91.90
2019-04-28T03:25:24.770Z,91.80
2019-04-28T03:27:52.890Z,91.90
2019-04-28T03:30:37.498Z,91.70
2019-04-28T03:33:11.664Z,91.30
2019-04-28T03:35:33.828Z,91.20
2019-04-28T03:38:01.171Z,91.30
2019-04-28T03:40:27.765Z,91.50
2019-04-28T03:42:53.986Z,91.20
2019-04-28T03:45:22.130Z,91.10
2019-04-28T03:47:50.887Z,91.10
2019-04-28T03:50:16.433Z,91.20
2019-04-28T03:52:42.657Z,91.20
2019-04-28T03:55:11.101Z,91.00
2019-04-28T03:57:36.990Z,91.10
2019-04-28T04:00:06.435Z,91.10
2019-04-28T04:02:32.649Z,91.00
2019-04-28T04:05:00.783Z,91.00
2019-04-28T04:07:27.014Z,91.00
2019-04-28T04:10:02.098Z,90.90
2019-04-28T04:12:33.259Z,90.90
2019-04-28T04:15:03.938Z,91.00
2019-04-28T04:17:33.575Z,91.20
2019-04-28T04:20:01.795Z,91.20
2019-04-28T04:22:28.155Z,91.50
2019-04-28T04:24:54.464Z,91.50
2019-04-28T04:27:21.086Z,91.40
2019-04-28T04:29:47.405Z,91.50
2019-04-28T04:32:22.717Z,91.80
2019-04-28T04:34:41.846Z,91.50
2019-04-28T04:37:12.187Z,91.80
2019-04-28T04:39:37.021Z,91.60
2019-04-28T04:42:03.246Z,91.80
2019-04-28T04:44:30.981Z,91.90
2019-04-28T04:46:57.365Z,92.00
2019-04-28T04:49:23.598Z,91.90
2019-04-28T04:51:50.911Z,91.80
2019-04-28T04:54:17.409Z,91.80
2019-04-28T04:56:43.638Z,91.90
2019-04-28T04:59:10.332Z,91.60
2019-04-28T05:01:50.745Z,91.50
2019-04-28T05:04:29.599Z,91.40
2019-04-28T05:06:55.830Z,91.60
2019-04-28T05:09:22.149Z,91.50
2019-04-28T05:11:49.921Z,91.50
2019-04-28T05:14:16.399Z,91.50
2019-04-28T05:16:42.647Z,91.60
2019-04-28T05:19:10.148Z,91.80
2019-04-28T05:21:36.701Z,91.80
2019-04-28T05:24:15.923Z,91.80
2019-04-28T05:26:42.570Z,91.90
2019-04-28T05:29:07.309Z,91.80
2019-04-28T05:31:33.605Z,91.80
2019-04-28T05:34:00.114Z,92.00
2019-04-28T05:36:26.434Z,91.50
2019-04-28T05:38:52.648Z,91.70
2019-04-28T05:41:19.617Z,91.60
2019-04-28T05:43:46.027Z,91.60
2019-04-28T05:46:12.344Z,91.60
2019-04-28T05:48:40.873Z,91.80
2019-04-28T05:51:11.889Z,91.60
2019-04-28T05:53:40.357Z,91.60
2019-04-28T05:56:14.620Z,91.70
2019-04-28T05:58:50.468Z,91.50
2019-04-28T06:01:21.290Z,91.60
2019-04-28T06:03:49.681Z,91.60
2019-04-28T06:06:16.388Z,91.10
2019-04-28T06:08:50.996Z,91.20
2019-04-28T06:11:31.385Z,91.30
2019-04-28T06:13:59.869Z,91.10
2019-04-28T06:16:26.430Z,90.90
2019-04-28T06:18:52.655Z,90.70
2019-04-28T06:21:18.873Z,90.70
2019-04-28T06:23:45.093Z,90.80
2019-04-28T06:26:11.378Z,91.10
2019-04-28T06:28:37.702Z,90.60
2019-04-28T06:31:04.026Z,90.40
2019-04-28T06:33:30.245Z,90.20
2019-04-28T06:35:56.480Z,90.30
2019-04-28T06:38:22.881Z,90.20
2019-04-28T06:40:49.105Z,89.90
2019-04-28T06:43:15.332Z,88.90
2019-04-28T06:45:41.554Z,88.90
2019-04-28T06:48:07.785Z,88.90
2019-04-28T06:50:34.105Z,88.70
2019-04-28T06:53:02.807Z,88.60
2019-04-28T06:55:28.432Z,88.40
2019-04-28T06:57:54.655Z,88.60
2019-04-28T07:00:20.863Z,89.00
2019-04-28T07:02:47.081Z,88.70
2019-04-28T07:05:13.321Z,88.60
2019-04-28T07:07:39.529Z,89.50
2019-04-28T07:10:05.967Z,87.90
2019-04-28T07:12:32.269Z,88.80
2019-04-28T07:14:58.485Z,88.20
2019-04-28T07:17:24.785Z,88.40
2019-04-28T07:19:52.937Z,88.10
2019-04-28T07:22:24.069Z,88.50
2019-04-28T07:24:50.277Z,88.10
2019-04-28T07:27:16.505Z,88.00
2019-04-28T07:29:42.813Z,87.40
2019-04-28T07:32:09.133Z,87.70
2019-04-28T07:34:35.361Z,88.10
2019-04-28T07:37:01.574Z,88.20
2019-04-28T07:39:27.789Z,87.70
2019-04-28T07:41:54.116Z,87.50
2019-04-28T07:44:20.429Z,87.20
2019-04-28T07:46:46.646Z,86.40
2019-04-28T07:49:12.873Z,86.60
2019-04-28T07:51:44.000Z,86.70
2019-04-28T07:54:12.126Z,86.80
2019-04-28T07:56:38.342Z,87.00
2019-04-28T07:59:04.563Z,86.70
2019-04-28T08:01:30.883Z,86.10
2019-04-28T08:03:57.602Z,86.50
2019-04-28T08:06:23.941Z,87.00
2019-04-28T08:08:50.165Z,86.90
2019-04-28T08:11:16.410Z,86.40
2019-04-28T08:13:42.621Z,85.70
2019-04-28T08:16:08.845Z,86.20
2019-04-28T08:18:35.064Z,86.80
2019-04-28T08:21:01.302Z,85.90
2019-04-28T08:23:27.621Z,86.30
2019-04-28T08:25:53.846Z,85.70
2019-04-28T08:28:20.050Z,85.60
2019-04-28T08:30:46.261Z,85.00
2019-04-28T08:33:14.389Z,85.70
2019-04-28T08:35:40.597Z,85.70
2019-04-28T08:38:06.817Z,86.00
2019-04-28T08:40:33.073Z,86.10
2019-04-28T08:42:59.289Z,85.50
2019-04-28T08:45:25.517Z,85.00
2019-04-28T08:47:54.607Z,85.10
2019-04-28T08:50:21.396Z,85.00
2019-04-28T08:52:47.669Z,84.80
2019-04-28T08:55:13.893Z,85.00
2019-04-28T08:57:40.118Z,85.60
2019-04-28T09:00:07.937Z,85.50
2019-04-28T09:02:34.177Z,85.00
2019-04-28T09:05:00.392Z,84.60
2019-04-28T09:07:26.605Z,84.70
2019-04-28T09:09:52.832Z,84.10
2019-04-28T09:12:19.046Z,84.40
2019-04-28T09:14:45.261Z,84.70
2019-04-28T09:17:11.505Z,84.70
2019-04-28T09:19:37.737Z,84.60
2019-04-28T09:22:04.449Z,85.10
2019-04-28T09:24:30.677Z,83.80
2019-04-28T09:26:56.989Z,84.20
2019-04-28T09:29:23.214Z,84.60
2019-04-28T09:31:49.625Z,84.00
2019-04-28T09:34:27.530Z,83.60
2019-04-28T09:36:43.957Z,83.10
2019-04-28T09:39:12.091Z,82.20
2019-04-28T09:41:40.178Z,82.70
2019-04-28T09:44:19.464Z,82.40
2019-04-28T09:46:47.580Z,81.70
2019-04-28T09:49:13.875Z,81.30
2019-04-28T09:51:40.104Z,80.90
2019-04-28T09:54:06.318Z,81.30
2019-04-28T09:56:32.546Z,81.40
2019-04-28T09:58:58.770Z,80.70
2019-04-28T10:01:24.997Z,79.70
2019-04-28T10:03:51.319Z,81.00
2019-04-28T10:06:17.773Z,81.70
2019-04-28T10:08:43.987Z,81.00
2019-04-28T10:11:10.221Z,81.00
2019-04-28T10:13:36.477Z,80.90
2019-04-28T10:16:02.979Z,80.70
2019-04-28T10:18:29.285Z,80.80
2019-04-28T10:20:55.625Z,80.60
2019-04-28T10:23:21.981Z,80.90
2019-04-28T10:25:48.197Z,79.90
2019-04-28T10:28:14.441Z,78.70
2019-04-28T10:30:40.656Z,78.80
2019-04-28T10:33:06.875Z,78.50
2019-04-28T10:35:33.201Z,79.70
2019-04-28T10:37:59.421Z,78.60
2019-04-28T10:40:35.365Z,78.10
2019-04-28T10:43:01.578Z,78.40
2019-04-28T10:45:29.704Z,77.90
2019-04-28T10:47:56.134Z,77.90
2019-04-28T10:50:22.348Z,76.80
2019-04-28T10:52:48.561Z,77.00
2019-04-28T10:55:14.889Z,76.90
2019-04-28T10:57:41.169Z,76.90
2019-04-28T11:00:08.952Z,76.00
2019-04-28T11:02:35.189Z,75.90
2019-04-28T11:05:09.279Z,75.80
2019-04-28T11:07:35.689Z,74.90
2019-04-28T11:10:08.038Z,74.20
2019-04-28T11:12:34.253Z,74.10
2019-04-28T11:15:00.480Z,74.50
2019-04-28T11:17:26.822Z,74.40
2019-04-28T11:19:53.132Z,73.40
2019-04-28T11:22:19.756Z,73.70
2019-04-28T11:24:46.075Z,74.10
2019-04-28T11:27:12.388Z,73.40
2019-04-28T11:29:38.736Z,73.00
2019-04-28T11:32:05.249Z,73.30
2019-04-28T11:34:45.062Z,73.10
2019-04-28T11:37:11.385Z,72.80
2019-04-28T11:39:39.614Z,72.40
2019-04-28T11:42:05.721Z,71.90
2019-04-28T11:44:31.944Z,71.50
2019-04-28T11:46:58.267Z,71.90
2019-04-28T11:49:24.627Z,71.10
2019-04-28T11:51:51.046Z,72.40
2019-04-28T11:54:17.533Z,71.20
2019-04-28T11:56:43.761Z,71.60
2019-04-28T11:59:09.977Z,71.40
2019-04-28T12:01:36.204Z,71.20
2019-04-28T12:04:04.336Z,72.20
2019-04-28T12:06:30.521Z,70.70
2019-04-28T12:08:58.645Z,70.90
2019-04-28T12:11:29.877Z,71.10
2019-04-28T12:14:10.088Z,70.40
2019-04-28T12:16:55.077Z,71.30
2019-04-28T12:19:23.188Z,70.70
2019-04-28T12:21:49.401Z,69.70
2019-04-28T12:24:15.725Z,69.90
2019-04-28T12:26:41.936Z,69.80
2019-04-28T12:29:09.153Z,68.50
2019-04-28T12:31:35.405Z,69.00
2019-04-28T12:34:01.629Z,66.10
2019-04-28T12:36:27.898Z,66.50
2019-04-28T12:38:54.176Z,67.20
2019-04-28T12:41:20.457Z,67.60
2019-04-28T12:43:46.670Z,66.90
2019-04-28T12:46:13.009Z,67.00
2019-04-28T12:48:39.330Z,67.20
2019-04-28T12:51:05.649Z,66.70
2019-04-28T12:53:32.000Z,66.40
2019-04-28T12:55:58.305Z,66.50
2019-04-28T12:58:24.521Z,65.20
2019-04-28T13:00:55.677Z,65.30
2019-04-28T13:03:33.001Z,63.40
2019-04-28T13:06:05.544Z,65.30
2019-04-28T13:08:29.354Z,65.10
2019-04-28T13:10:55.673Z,63.90
2019-04-28T13:13:22.037Z,59.30
2019-04-28T13:15:48.258Z,59.60
2019-04-28T13:18:14.490Z,58.70
2019-04-28T13:20:41.726Z,57.10
2019-04-28T13:23:07.942Z,54.60
2019-04-28T13:25:34.152Z,56.20
2019-04-28T13:28:00.384Z,55.90
2019-04-28T13:30:26.713Z,55.50
2019-04-28T13:32:53.018Z,55.30
2019-04-28T13:35:19.482Z,55.50
2019-04-28T13:37:45.769Z,56.10
2019-04-28T13:40:29.248Z,56.30
2019-04-28T13:42:55.625Z,55.50
2019-04-28T13:45:23.814Z,55.00
2019-04-28T13:47:49.961Z,52.20
2019-04-28T13:50:24.432Z,52.80
2019-04-28T13:52:50.750Z,52.70
2019-04-28T13:55:27.799Z,52.90
2019-04-28T13:57:55.109Z,52.60
2019-04-28T14:00:39.984Z,52.20
2019-04-28T14:03:26.280Z,53.70
2019-04-28T14:06:03.465Z,52.90
2019-04-28T14:08:29.874Z,53.70
2019-04-28T14:10:56.091Z,52.30
2019-04-28T14:13:22.511Z,54.20
2019-04-28T14:15:48.830Z,53.20
2019-04-28T14:18:15.120Z,54.30
2019-04-28T14:20:41.345Z,53.80
2019-04-28T14:23:07.683Z,53.70
2019-04-28T14:25:34.785Z,53.40
2019-04-28T14:28:01.919Z,53.90
2019-04-28T14:30:28.207Z,53.70
2019-04-28T14:32:54.469Z,54.80
2019-04-28T14:35:20.786Z,53.50
2019-04-28T14:37:47.010Z,53.40
2019-04-28T14:40:13.426Z,54.50
2019-04-28T14:42:39.646Z,55.80
2019-04-28T14:45:07.437Z,53.80
2019-04-28T14:47:33.648Z,53.20
2019-04-28T14:50:02.678Z,53.40
2019-04-28T14:52:28.021Z,54.60
2019-04-28T14:54:54.343Z,52.60
2019-04-28T14:57:20.662Z,54.70
2019-04-28T14:59:46.940Z,53.80
2019-04-28T15:02:31.622Z,53.10
2019-04-28T15:05:02.894Z,53.30
2019-04-28T15:07:40.734Z,53.30
2019-04-28T15:10:09.605Z,53.60
2019-04-28T15:12:36.120Z,53.60
2019-04-28T15:15:04.649Z,53.50
2019-04-28T15:17:31.102Z,53.40
2019-04-28T15:19:57.413Z,53.00
2019-04-28T15:22:23.693Z,53.10
2019-04-28T15:24:49.925Z,53.20
2019-04-28T15:27:16.143Z,53.00
2019-04-28T15:29:42.353Z,52.00
2019-04-28T15:32:08.577Z,52.20
2019-04-28T15:34:34.846Z,53.30
2019-04-28T15:37:09.467Z,54.50
2019-04-28T15:39:29.209Z,52.40
2019-04-28T15:41:55.414Z,52.30
2019-04-28T15:44:21.856Z,53.00
2019-04-28T15:46:48.144Z,52.70
2019-04-28T15:49:14.353Z,53.90
2019-04-28T15:51:40.645Z,53.40
2019-04-28T15:54:06.922Z,52.10
2019-04-28T15:56:40.857Z,51.80
2019-04-28T15:59:07.184Z,51.60
2019-04-28T16:01:33.525Z,50.60
2019-04-28T16:03:59.748Z,51.10
2019-04-28T16:06:25.969Z,51.90
2019-04-28T16:08:52.193Z,51.80
2019-04-28T16:11:18.413Z,50.60
2019-04-28T16:13:44.629Z,50.90
2019-04-28T16:16:11.869Z,51.60
2019-04-28T16:18:38.145Z,50.70
2019-04-28T16:21:04.561Z,49.90
2019-04-28T16:23:30.885Z,50.20
2019-04-28T16:25:57.104Z,51.30
2019-04-28T16:28:23.425Z,51.20
2019-04-28T16:30:49.673Z,52.90
2019-04-28T16:33:15.897Z,51.40
2019-04-28T16:35:42.221Z,51.00
2019-04-28T16:38:08.458Z,50.90
2019-04-28T16:40:37.057Z,50.00
2019-04-28T16:43:05.877Z,50.40
2019-04-28T16:45:33.205Z,50.90
2019-04-28T16:47:59.425Z,50.30
2019-04-28T16:50:25.644Z,51.10
2019-04-28T16:52:51.917Z,50.90
2019-04-28T16:55:20.053Z,50.80
2019-04-28T16:57:48.280Z,50.80
2019-04-28T17:00:16.505Z,51.20
2019-04-28T17:02:43.422Z,51.70
2019-04-28T17:05:10.346Z,51.60
2019-04-28T17:07:36.565Z,50.70
2019-04-28T17:10:05.792Z,50.50
2019-04-28T17:12:32.121Z,50.30
2019-04-28T17:14:58.403Z,50.50
2019-04-28T17:17:24.685Z,50.70
2019-04-28T17:19:50.997Z,51.10
2019-04-28T17:22:17.349Z,51.10
2019-04-28T17:24:43.573Z,51.80
2019-04-28T17:27:09.895Z,51.40
2019-04-28T17:29:37.888Z,51.30
2019-04-28T17:32:04.446Z,51.60
2019-04-28T17:34:30.757Z,51.80
2019-04-28T17:36:57.012Z,54.00
2019-04-28T17:39:24.223Z,52.30
2019-04-28T17:41:50.461Z,51.40
2019-04-28T17:44:17.251Z,51.40
2019-04-28T17:47:03.901Z,52.20
2019-04-28T17:49:34.537Z,51.40
2019-04-28T17:52:00.849Z,51.90
2019-04-28T17:54:27.065Z,51.40
2019-04-28T17:56:53.520Z,51.60
2019-04-28T17:59:19.862Z,52.00
2019-04-28T18:02:00.101Z,51.70
2019-04-28T18:04:30.983Z,51.90
2019-04-28T18:06:59.109Z,52.00
2019-04-28T18:09:26.637Z,52.00
2019-04-28T18:11:52.984Z,51.70
2019-04-28T18:14:19.309Z,51.70
2019-04-28T18:16:47.549Z,51.90
2019-04-28T18:19:15.430Z,52.80
2019-04-28T18:21:41.737Z,53.00
2019-04-28T18:24:08.025Z,53.50
2019-04-28T18:26:34.333Z,53.80
2019-04-28T18:29:00.538Z,52.80
2019-04-28T18:31:34.239Z,52.70
2019-04-28T18:34:11.457Z,53.00
2019-04-28T18:36:39.596Z,53.50
2019-04-28T18:39:25.005Z,53.80
2019-04-28T18:42:09.763Z,53.90
2019-04-28T18:44:36.079Z,54.30
2019-04-28T18:47:02.493Z,54.80
2019-04-28T18:49:28.825Z,54.90
2019-04-28T18:51:55.121Z,55.30
2019-04-28T18:54:21.597Z,55.20
2019-04-28T18:56:47.917Z,55.30
2019-04-28T18:59:14.140Z,55.90
2019-04-28T19:01:42.289Z,55.70
2019-04-28T19:04:08.612Z,55.80
2019-04-28T19:06:34.868Z,56.40
2019-04-28T19:09:05.757Z,56.30
2019-04-28T19:11:38.369Z,56.30
2019-04-28T19:14:15.455Z,56.50
2019-04-28T19:16:46.498Z,57.40
2019-04-28T19:19:14.610Z,58.90
2019-04-28T19:21:42.746Z,59.10
2019-04-28T19:24:08.945Z,58.70
2019-04-28T19:26:35.177Z,59.20
2019-04-28T19:29:01.547Z,59.10
2019-04-28T19:31:41.238Z,59.30
2019-04-28T19:34:07.465Z,59.50
2019-04-28T19:36:33.689Z,60.30
2019-04-28T19:39:03.514Z,60.40
2019-04-28T19:41:29.937Z,60.90
2019-04-28T19:43:57.257Z,60.40
2019-04-28T19:46:23.488Z,60.20
2019-04-28T19:48:49.707Z,61.60
2019-04-28T19:51:30.775Z,64.60
2019-04-28T19:53:45.969Z,65.70
2019-04-28T19:56:20.119Z,65.90
2019-04-28T19:58:50.854Z,66.00
2019-04-28T20:01:25.044Z,66.20
2019-04-28T20:03:51.373Z,65.90
2019-04-28T20:06:17.610Z,66.50
2019-04-28T20:08:43.841Z,67.60
2019-04-28T20:11:10.081Z,69.30
2019-04-28T20:13:36.429Z,69.00
2019-04-28T20:16:02.937Z,68.80
2019-04-28T20:18:29.636Z,69.20
2019-04-28T20:20:56.222Z,69.50
2019-04-28T20:23:22.655Z,70.90
2019-04-28T20:25:48.990Z,71.30
2019-04-28T20:28:15.310Z,71.80
2019-04-28T20:30:41.517Z,72.30
2019-04-28T20:33:07.977Z,71.60
2019-04-28T20:35:36.276Z,71.70
2019-04-28T20:38:10.455Z,72.20
2019-04-28T20:40:41.699Z,72.50
2019-04-28T20:43:09.833Z,73.00
2019-04-28T20:45:36.049Z,72.90
2019-04-28T20:48:03.280Z,73.30
2019-04-28T20:50:29.589Z,73.90
2019-04-28T20:52:57.087Z,73.90
2019-04-28T20:55:24.173Z,73.80
2019-04-28T20:57:50.394Z,73.90
2019-04-28T21:00:16.821Z,74.20
2019-04-28T21:02:44.373Z,74.60
2019-04-28T21:05:10.725Z,74.80
2019-04-28T21:07:37.049Z,75.10
2019-04-28T21:10:04.580Z,75.20
2019-04-28T21:12:30.788Z,75.50
2019-04-28T21:14:57.019Z,75.60
2019-04-28T21:17:23.329Z,75.90
2019-04-28T21:19:49.565Z,76.20
2019-04-28T21:22:15.785Z,76.30
2019-04-28T21:24:42.005Z,76.60
2019-04-28T21:27:08.225Z,77.40
2019-04-28T21:29:34.510Z,77.10
2019-04-28T21:32:00.736Z,76.90
2019-04-28T21:34:26.965Z,77.60
2019-04-28T21:36:53.185Z,77.90
2019-04-28T21:39:19.413Z,77.90
2019-04-28T21:41:45.625Z,78.10
2019-04-28T21:44:30.326Z,77.80
2019-04-28T21:47:07.140Z,78.10
2019-04-28T21:49:35.268Z,78.60
2019-04-28T21:52:01.565Z,78.60
2019-04-28T21:54:27.884Z,78.70
2019-04-28T21:56:54.116Z,78.70
2019-04-28T21:59:20.365Z,78.90
2019-04-28T22:01:46.695Z,78.70
2019-04-28T22:04:13.152Z,78.90
2019-04-28T22:06:39.473Z,79.20
2019-04-28T22:09:05.880Z,79.60
2019-04-28T22:11:33.884Z,79.50
2019-04-28T22:14:00.098Z,79.60
2019-04-28T22:16:26.409Z,79.80
2019-04-28T22:18:52.653Z,79.90
2019-04-28T22:21:18.872Z,78.80
2019-04-28T22:23:55.713Z,79.60
2019-04-28T22:26:40.488Z,79.60
2019-04-28T22:29:06.705Z,79.80
2019-04-28T22:31:33.094Z,79.20
2019-04-28T22:34:00.320Z,79.70
2019-04-28T22:36:26.653Z,79.80
2019-04-28T22:38:52.869Z,79.80
2019-04-28T22:41:19.079Z,79.70
2019-04-28T22:43:45.296Z,80.10
2019-04-28T22:46:11.513Z,80.40
2019-04-28T22:48:37.849Z,79.80
2019-04-28T22:51:04.093Z,80.40
2019-04-28T22:53:32.309Z,81.00
2019-04-28T22:56:00.313Z,80.90
2019-04-28T22:58:28.436Z,81.30
2019-04-28T23:01:15.038Z,80.50
2019-04-28T23:04:01.558Z,80.90
2019-04-28T23:06:27.885Z,81.60
2019-04-28T23:08:54.110Z,81.60
2019-04-28T23:11:20.532Z,81.20
2019-04-28T23:13:46.745Z,81.40
2019-04-28T23:16:13.172Z,81.80
2019-04-28T23:18:39.513Z,81.50
2019-04-28T23:21:24.393Z,82.00
2019-04-28T23:23:50.649Z,81.20
2019-04-28T23:26:16.858Z,80.80
2019-04-28T23:28:43.073Z,80.90
2019-04-28T23:31:09.441Z,80.90
2019-04-28T23:33:35.769Z,81.00
2019-04-28T23:36:02.084Z,81.00
2019-04-28T23:38:28.305Z,81.20
2019-04-28T23:41:13.121Z,81.30
2019-04-28T23:43:39.350Z,82.00
2019-04-28T23:46:05.565Z,82.20
2019-04-28T23:48:31.772Z,82.20
2019-04-28T23:51:11.889Z,82.30
2019-04-28T23:53:58.137Z,82.50
2019-04-28T23:56:24.483Z,82.40
2019-04-28T23:58:50.692Z,82.90
